Time;durP1;ratioP1;P1;durP2;ratioP2;P2;SDS_P1;SDS_P2;PMS_P1;PMS_P2;Temp;Humidity;BMP_temperature;BMP_pressure;BME280_temperature;BME280_humidity;BME280_pressure;Samples;Min_cycle;Max_cycle;Signal;HPM_P1;HPM_P2
2022/03/08 00:02:16;;;;;;;12.17;10.47;;;12.10;99.90;;;;;;5064139;28;20436;-65
2022/03/08 00:04:48;;;;;;;12.70;11.30;;;12.00;99.90;;;;;;5064555;28;20535;-65
2022/03/08 00:07:21;;;;;;;12.00;10.80;;;12.00;99.90;;;;;;5064220;28;20466;-65
2022/03/08 00:09:52;;;;;;;13.40;12.10;;;11.90;99.90;;;;;;5063790;28;20524;-66
2022/03/08 00:12:23;;;;;;;11.70;9.97;;;12.00;99.90;;;;;;5063288;28;20492;-65
2022/03/08 00:14:54;;;;;;;11.63;10.20;;;11.90;99.90;;;;;;5064387;28;20484;-66
2022/03/08 00:17:34;;;;;;;11.00;9.23;;;12.00;99.90;;;;;;5063897;28;20462;-67
2022/03/08 00:20:08;;;;;;;9.43;8.40;;;12.00;99.90;;;;;;5064325;28;20503;-66
2022/03/08 00:22:40;;;;;;;11.17;9.37;;;11.90;99.90;;;;;;5064247;28;20455;-67
2022/03/08 00:25:12;;;;;;;10.00;9.00;;;12.00;99.90;;;;;;5063861;28;20528;-66
2022/03/08 00:27:45;;;;;;;9.63;8.17;;;11.90;99.90;;;;;;5063410;28;20472;-67
2022/03/08 00:30:20;;;;;;;8.63;7.73;;;12.00;99.90;;;;;;5066467;28;20453;-66
2022/03/08 00:32:54;;;;;;;14.10;8.77;;;11.90;99.90;;;;;;5063090;28;20487;-67
2022/03/08 00:35:26;;;;;;;9.60;8.60;;;11.90;99.90;;;;;;5073963;28;20462;-66
2022/03/08 00:37:59;;;;;;;9.90;7.90;;;11.90;99.90;;;;;;5061133;28;22154;-67
2022/03/08 00:40:30;;;;;;;9.27;8.37;;;11.90;99.90;;;;;;5069320;28;20448;-68
2022/03/08 00:43:01;;;;;;;8.03;7.23;;;11.90;99.90;;;;;;5061900;28;20485;-66
2022/03/08 00:45:32;;;;;;;8.43;7.40;;;12.00;99.90;;;;;;5070643;28;20487;-68
2022/03/08 00:48:05;;;;;;;8.00;7.30;;;11.90;99.90;;;;;;5062468;28;20444;-64
2022/03/08 00:50:38;;;;;;;7.30;6.60;;;11.80;99.90;;;;;;5065439;28;20526;-68
2022/03/08 00:53:08;;;;;;;8.53;7.00;;;11.70;99.90;;;;;;5069932;28;20479;-68
2022/03/08 00:55:39;;;;;;;8.13;6.90;;;11.70;99.90;;;;;;5056022;28;20594;-67
2022/03/08 00:58:10;;;;;;;7.27;6.40;;;11.50;99.90;;;;;;5063314;28;20514;-65
2022/03/08 01:00:42;;;;;;;8.00;6.50;;;11.50;99.90;;;;;;5063090;28;20444;-64
2022/03/08 01:03:15;;;;;;;7.00;6.30;;;11.40;99.90;;;;;;5065082;28;20448;-65
2022/03/08 01:05:46;;;;;;;7.53;6.83;;;11.30;99.90;;;;;;5062482;28;20437;-65
2022/03/08 01:08:17;;;;;;;6.47;5.87;;;11.20;99.90;;;;;;5062948;28;20463;-65
2022/03/08 01:10:48;;;;;;;7.80;6.20;;;11.30;99.90;;;;;;5062512;28;20445;-67
2022/03/08 01:13:19;;;;;;;7.57;6.87;;;11.20;99.90;;;;;;5066137;28;20990;-68
2022/03/08 01:15:50;;;;;;;8.47;6.33;;;11.10;99.90;;;;;;5062815;28;20486;-67
2022/03/08 01:18:23;;;;;;;8.50;6.20;;;11.10;99.90;;;;;;5064114;28;20463;-65
2022/03/08 01:20:54;;;;;;;7.97;6.27;;;11.10;99.90;;;;;;5063240;28;20441;-66
2022/03/08 01:23:25;;;;;;;7.60;6.00;;;10.90;99.90;;;;;;5061514;28;20792;-63
2022/03/08 01:25:56;;;;;;;6.13;5.37;;;10.90;99.90;;;;;;5063385;28;20521;-65
2022/03/08 01:28:27;;;;;;;7.00;5.47;;;10.90;99.90;;;;;;5062895;28;20459;-67
2022/03/08 01:30:58;;;;;;;7.00;5.97;;;10.90;99.90;;;;;;5062708;28;20452;-66
2022/03/08 01:33:31;;;;;;;6.37;5.43;;;10.70;99.90;;;;;;5059558;28;20504;-64
2022/03/08 01:36:02;;;;;;;7.23;5.90;;;10.60;99.90;;;;;;5063312;28;20512;-65
2022/03/08 01:38:33;;;;;;;7.13;5.20;;;10.60;99.90;;;;;;5063723;28;20471;-67
2022/03/08 01:41:05;;;;;;;7.50;5.43;;;10.60;99.90;;;;;;5063163;28;20452;-67
2022/03/08 01:43:36;;;;;;;8.10;5.90;;;10.50;99.90;;;;;;5057644;28;20843;-65
2022/03/08 01:46:09;;;;;;;6.67;5.63;;;10.40;99.90;;;;;;5069014;28;20478;-64
2022/03/08 01:48:42;;;;;;;8.00;6.00;;;10.40;99.90;;;;;;5066631;28;20538;-64
2022/03/08 01:51:15;;;;;;;6.50;5.83;;;10.40;99.90;;;;;;5055666;28;20788;-64
2022/03/08 01:53:46;;;;;;;13.23;5.83;;;10.40;99.90;;;;;;5061592;28;20563;-64
2022/03/08 01:56:17;;;;;;;10.90;5.60;;;10.30;99.90;;;;;;5061465;28;20459;-69
2022/03/08 01:58:48;;;;;;;6.90;6.07;;;10.20;99.90;;;;;;5062334;28;20463;-64
2022/03/08 02:01:19;;;;;;;8.17;5.00;;;10.10;99.90;;;;;;5065429;28;21053;-64
2022/03/08 02:03:52;;;;;;;6.80;5.40;;;10.00;99.90;;;;;;5061963;28;20514;-66
2022/03/08 02:06:23;;;;;;;8.80;5.67;;;9.90;99.90;;;;;;5061738;28;20436;-67
2022/03/08 02:08:57;;;;;;;9.60;5.90;;;9.80;99.90;;;;;;5062505;28;20452;-67
2022/03/08 02:11:28;;;;;;;8.50;6.70;;;9.70;99.90;;;;;;5063341;28;20544;-67
2022/03/08 02:13:59;;;;;;;6.93;5.90;;;9.70;99.90;;;;;;5061543;28;20563;-68
2022/03/08 02:16:30;;;;;;;9.37;5.80;;;9.80;99.90;;;;;;5062545;28;20544;-68
2022/03/08 02:19:02;;;;;;;6.33;5.70;;;9.70;99.90;;;;;;5064280;28;20444;-69
2022/03/08 02:21:37;;;;;;;8.07;5.47;;;9.60;99.90;;;;;;5070501;28;20914;-65
2022/03/08 02:24:08;;;;;;;8.40;6.20;;;9.50;99.90;;;;;;5064730;28;20443;-63
2022/03/08 02:26:40;;;;;;;8.90;7.50;;;9.50;99.90;;;;;;5052031;28;20546;-64
2022/03/08 02:29:11;;;;;;;9.00;6.60;;;9.50;99.90;;;;;;5062228;28;20488;-63
2022/03/08 02:31:42;;;;;;;7.53;6.70;;;9.40;99.90;;;;;;5061808;28;20452;-63
2022/03/08 02:34:13;;;;;;;11.30;7.97;;;9.40;99.90;;;;;;5061608;28;20511;-62
2022/03/08 02:37:00;;;;;;;9.77;8.30;;;9.20;99.90;;;;;;5061790;28;20463;-62
2022/03/08 02:39:31;;;;;;;9.30;7.30;;;9.10;99.90;;;;;;5062509;28;20445;-60
2022/03/08 02:42:02;;;;;;;9.27;6.67;;;9.00;99.90;;;;;;5058443;28;20465;-62
2022/03/08 02:44:33;;;;;;;8.63;6.57;;;9.00;99.90;;;;;;5053662;28;20448;-62
2022/03/08 02:47:06;;;;;;;13.43;7.20;;;8.90;99.90;;;;;;5061044;28;20444;-61
2022/03/08 02:49:37;;;;;;;11.03;7.53;;;8.90;99.90;;;;;;5056270;28;20457;-61
2022/03/08 02:52:10;;;;;;;13.15;7.05;;;8.90;99.90;;;;;;5063620;28;20463;-61
2022/03/08 02:54:41;;;;;;;9.57;6.70;;;8.70;99.90;;;;;;5062376;28;20243;-62
2022/03/08 02:57:11;;;;;;;9.68;6.50;;;8.60;99.90;;;;;;5065915;28;20531;-62
2022/03/08 02:59:43;;;;;;;6.67;6.00;;;8.60;99.90;;;;;;5066769;28;20206;-64
2022/03/08 03:02:13;;;;;;;6.73;5.90;;;8.60;99.90;;;;;;5059960;28;20475;-65
2022/03/08 03:04:45;;;;;;;10.67;5.93;;;8.60;99.90;;;;;;5065102;28;20500;-63
2022/03/08 03:07:18;;;;;;;7.13;6.43;;;8.50;99.90;;;;;;5065604;28;20466;-64
2022/03/08 03:09:50;;;;;;;13.35;6.80;;;8.40;99.90;;;;;;5066089;28;20527;-64
2022/03/08 03:12:22;;;;;;;7.07;5.70;;;8.40;99.90;;;;;;5067141;28;20297;-64
2022/03/08 03:14:52;;;;;;;6.72;5.40;;;8.30;99.90;;;;;;5064466;28;20222;-64
2022/03/08 03:17:24;;;;;;;12.20;6.40;;;8.30;99.90;;;;;;5064754;28;20724;-64
2022/03/08 03:19:55;;;;;;;8.40;6.82;;;8.30;99.90;;;;;;5066673;28;20340;-65
2022/03/08 03:22:27;;;;;;;8.07;6.90;;;8.30;99.90;;;;;;5065712;28;20198;-65
2022/03/08 03:24:58;;;;;;;9.10;7.30;;;8.20;99.90;;;;;;5049799;28;20225;-66
2022/03/08 03:27:30;;;;;;;8.82;7.25;;;8.20;99.90;;;;;;5065541;28;20603;-65
2022/03/08 03:30:01;;;;;;;9.35;7.10;;;8.10;99.90;;;;;;5066277;28;20303;-65
2022/03/08 03:32:32;;;;;;;10.63;7.10;;;8.00;99.90;;;;;;5064105;28;20261;-64
2022/03/08 03:35:03;;;;;;;8.90;6.63;;;8.00;99.90;;;;;;5073170;28;20491;-64
2022/03/08 03:37:36;;;;;;;10.10;8.35;;;8.00;99.90;;;;;;5062448;28;20187;-65
2022/03/08 03:40:08;;;;;;;8.10;6.75;;;8.00;99.90;;;;;;5063813;28;20364;-65
2022/03/08 03:42:39;;;;;;;7.28;6.10;;;7.90;99.90;;;;;;5062878;28;20281;-65
2022/03/08 03:45:14;;;;;;;12.05;7.13;;;7.80;99.90;;;;;;5074672;28;20672;-66
2022/03/08 03:47:45;;;;;;;10.13;6.55;;;7.80;99.90;;;;;;5067242;28;20265;-65
2022/03/08 03:50:16;;;;;;;8.77;6.57;;;7.80;99.90;;;;;;5049215;28;20206;-65
2022/03/08 03:52:48;;;;;;;8.45;6.88;;;7.70;99.90;;;;;;5061899;28;20216;-64
2022/03/08 03:55:19;;;;;;;8.13;6.20;;;7.70;99.90;;;;;;5065142;28;20233;-64
2022/03/08 03:57:50;;;;;;;10.75;7.07;;;7.60;99.90;;;;;;5063197;28;20943;-64
2022/03/08 04:00:24;;;;;;;8.07;6.03;;;7.60;99.90;;;;;;5064889;28;20613;-65
2022/03/08 04:02:55;;;;;;;9.00;6.40;;;7.50;99.90;;;;;;5064117;28;20261;-65
2022/03/08 04:05:34;;;;;;;7.35;6.38;;;7.50;99.90;;;;;;5063288;28;20551;-64
2022/03/08 04:08:07;;;;;;;12.95;6.80;;;7.40;99.90;;;;;;5063404;28;20276;-65
2022/03/08 04:10:39;;;;;;;10.00;6.63;;;7.40;99.90;;;;;;5065060;28;20241;-65
2022/03/08 04:13:09;;;;;;;8.57;6.47;;;7.40;99.90;;;;;;5062673;28;20204;-64
2022/03/08 04:15:44;;;;;;;9.25;6.40;;;7.40;99.90;;;;;;5064405;28;20252;-65
2022/03/08 04:18:16;;;;;;;10.57;6.43;;;7.40;99.90;;;;;;5064594;28;20201;-66
2022/03/08 04:20:51;;;;;;;10.25;6.47;;;7.40;99.90;;;;;;5064936;28;20634;-65
2022/03/08 04:23:24;;;;;;;7.05;5.85;;;7.40;99.90;;;;;;5064410;28;20228;-65
2022/03/08 04:25:58;;;;;;;10.50;8.10;;;7.40;99.90;;;;;;5057542;28;20604;-65
2022/03/08 04:28:31;;;;;;;10.65;6.80;;;7.40;99.90;;;;;;5061558;28;20268;-65
2022/03/08 04:31:18;;;;;;;8.70;6.28;;;7.30;99.90;;;;;;5064473;28;20318;-63
2022/03/08 04:33:52;;;;;;;9.23;7.15;;;7.20;99.90;;;;;;5062804;28;20257;-65
2022/03/08 04:36:35;;;;;;;9.90;6.10;;;7.20;99.90;;;;;;5055038;28;20220;-65
2022/03/08 04:39:08;;;;;;;10.68;6.80;;;7.10;99.90;;;;;;5068484;28;20198;-64
2022/03/08 04:41:39;;;;;;;10.90;6.55;;;7.10;99.90;;;;;;5063679;28;20232;-64
2022/03/08 04:44:10;;;;;;;7.68;6.45;;;7.00;99.90;;;;;;5060290;28;20225;-64
2022/03/08 04:46:45;;;;;;;9.25;6.90;;;7.10;99.90;;;;;;5063497;28;20198;-64
2022/03/08 04:49:16;;;;;;;11.43;7.20;;;7.10;99.90;;;;;;5066872;28;20202;-63
2022/03/08 04:51:56;;;;;;;10.40;7.57;;;7.00;99.90;;;;;;5063808;28;20206;-64
2022/03/08 04:54:28;;;;;;;8.50;6.55;;;7.00;99.90;;;;;;5064092;28;20236;-65
2022/03/08 04:57:03;;;;;;;9.65;6.57;;;7.00;99.90;;;;;;5063305;28;20194;-66
2022/03/08 04:59:34;;;;;;;8.35;6.90;;;6.90;99.90;;;;;;5064034;28;20193;-65
2022/03/08 05:02:06;;;;;;;8.90;6.70;;;6.90;99.90;;;;;;5062422;28;20213;-65
2022/03/08 05:04:37;;;;;;;8.20;6.90;;;6.80;99.90;;;;;;5063226;28;20202;-65
2022/03/08 05:07:08;;;;;;;11.48;7.78;;;6.70;99.90;;;;;;5061872;28;20217;-65
2022/03/08 05:09:41;;;;;;;11.10;6.80;;;6.70;99.90;;;;;;5075495;28;20208;-66
2022/03/08 05:12:12;;;;;;;7.82;7.05;;;6.60;99.90;;;;;;5062275;28;20210;-65
2022/03/08 05:14:44;;;;;;;10.80;7.43;;;6.50;99.90;;;;;;5068182;28;20344;-65
2022/03/08 05:17:16;;;;;;;10.73;7.55;;;6.50;99.90;;;;;;5070462;28;20229;-64
2022/03/08 05:19:47;;;;;;;10.50;6.82;;;6.40;99.90;;;;;;5064988;28;20229;-65
2022/03/08 05:22:22;;;;;;;9.65;8.45;;;6.40;99.90;;;;;;5063397;28;20205;-64
2022/03/08 05:24:54;;;;;;;11.65;7.75;;;6.40;99.90;;;;;;5064049;28;20202;-66
2022/03/08 05:27:25;;;;;;;11.70;7.30;;;6.40;99.90;;;;;;5064838;28;20209;-66
2022/03/08 05:29:56;;;;;;;12.30;6.90;;;6.30;99.90;;;;;;5068202;28;20190;-65
2022/03/08 05:32:27;;;;;;;10.93;7.53;;;6.30;99.90;;;;;;5062420;28;20210;-64
2022/03/08 05:34:58;;;;;;;11.65;7.78;;;6.30;99.90;;;;;;5063564;28;20285;-64
2022/03/08 05:37:29;;;;;;;10.40;7.63;;;6.30;99.90;;;;;;5063602;28;20264;-64
2022/03/08 05:40:01;;;;;;;10.93;8.15;;;6.20;99.90;;;;;;5064873;28;20572;-64
2022/03/08 05:42:33;;;;;;;11.25;7.75;;;6.20;99.90;;;;;;5061874;28;20213;-64
2022/03/08 05:45:03;;;;;;;16.95;8.82;;;6.10;99.90;;;;;;5073066;28;20217;-63
2022/03/08 05:47:34;;;;;;;12.88;8.00;;;6.10;99.90;;;;;;5065460;28;20216;-64
2022/03/08 05:50:07;;;;;;;11.20;8.50;;;6.10;99.90;;;;;;5068256;28;20206;-64
2022/03/08 05:52:40;;;;;;;11.85;9.23;;;6.00;99.90;;;;;;5061968;28;20300;-63
2022/03/08 05:55:13;;;;;;;13.68;9.13;;;6.00;99.90;;;;;;5062825;28;20288;-63
2022/03/08 05:57:44;;;;;;;10.70;8.80;;;6.00;99.90;;;;;;5065962;28;20256;-64
2022/03/08 06:00:16;;;;;;;11.60;8.82;;;6.00;99.90;;;;;;5064055;28;20281;-64
2022/03/08 06:02:47;;;;;;;10.30;8.35;;;6.00;99.90;;;;;;5070925;28;20216;-64
2022/03/08 06:05:18;;;;;;;8.77;7.88;;;5.90;99.90;;;;;;5063876;28;20228;-64
2022/03/08 06:07:55;;;;;;;13.98;8.82;;;5.90;99.90;;;;;;5062412;28;20359;-64
2022/03/08 06:10:28;;;;;;;14.32;8.45;;;5.90;99.90;;;;;;5063031;28;20244;-64
2022/03/08 06:12:59;;;;;;;11.73;8.55;;;5.80;99.90;;;;;;5065557;28;20190;-63
2022/03/08 06:15:30;;;;;;;11.48;8.50;;;5.80;99.90;;;;;;5064144;28;20241;-64
2022/03/08 06:18:01;;;;;;;14.18;9.32;;;5.70;99.90;;;;;;5062103;28;20269;-64
2022/03/08 06:20:32;;;;;;;10.63;9.50;;;5.70;99.90;;;;;;5063109;28;20261;-63
2022/03/08 06:23:03;;;;;;;11.93;10.27;;;5.60;99.90;;;;;;5062476;28;20278;-63
2022/03/08 06:25:36;;;;;;;13.63;9.52;;;5.60;99.90;;;;;;5061689;28;20289;-63
2022/03/08 06:28:07;;;;;;;13.48;9.57;;;5.50;99.90;;;;;;5061799;28;20648;-64
2022/03/08 06:30:38;;;;;;;13.05;9.02;;;5.50;99.90;;;;;;5069968;28;20204;-63
2022/03/08 06:33:11;;;;;;;11.20;9.93;;;5.50;99.90;;;;;;5071264;28;20232;-64
2022/03/08 06:35:42;;;;;;;14.25;9.63;;;5.40;99.90;;;;;;5067542;28;20281;-63
2022/03/08 06:38:18;;;;;;;15.23;10.45;;;5.50;99.90;;;;;;5063555;28;20206;-63
2022/03/08 06:40:51;;;;;;;12.80;9.82;;;5.40;99.90;;;;;;5062693;28;20204;-64
2022/03/08 06:43:25;;;;;;;13.60;10.95;;;5.40;99.90;;;;;;5068703;28;20206;-63
2022/03/08 06:45:56;;;;;;;12.15;10.27;;;5.40;99.90;;;;;;5063304;28;20200;-64
2022/03/08 06:48:31;;;;;;;13.27;10.10;;;5.50;99.90;;;;;;5065235;28;20202;-63
2022/03/08 06:51:02;;;;;;;13.52;9.88;;;5.50;99.90;;;;;;5059477;28;20212;-63
2022/03/08 06:53:33;;;;;;;17.00;11.82;;;5.50;99.90;;;;;;5065039;28;20220;-63
2022/03/08 06:56:07;;;;;;;16.70;10.88;;;5.40;99.90;;;;;;5069688;28;20266;-63
2022/03/08 06:58:38;;;;;;;11.05;9.95;;;5.40;99.90;;;;;;5060806;28;20198;-64
2022/03/08 07:01:09;;;;;;;11.40;10.20;;;5.40;99.90;;;;;;5063188;28;20282;-64
2022/03/08 07:03:40;;;;;;;11.75;10.50;;;5.40;99.90;;;;;;5061809;28;20565;-64
2022/03/08 07:06:11;;;;;;;16.42;9.77;;;5.20;99.90;;;;;;5063517;28;20206;-64
2022/03/08 07:08:42;;;;;;;13.88;9.65;;;5.10;99.90;;;;;;5063003;28;20206;-63
2022/03/08 07:11:15;;;;;;;15.10;10.05;;;5.10;99.90;;;;;;5061967;28;20206;-63
2022/03/08 07:13:46;;;;;;;10.60;9.25;;;5.10;99.90;;;;;;5063374;28;20404;-64
2022/03/08 07:16:17;;;;;;;15.32;10.57;;;5.10;99.90;;;;;;5061924;28;20295;-64
2022/03/08 07:18:47;;;;;;;17.45;11.25;;;5.10;99.90;;;;;;5064173;28;20284;-63
2022/03/08 07:21:19;;;;;;;13.27;11.27;;;5.10;99.90;;;;;;5043988;28;20216;-64
2022/03/08 07:23:50;;;;;;;16.55;11.38;;;5.10;99.90;;;;;;5063473;28;20251;-63
2022/03/08 07:26:22;;;;;;;16.60;12.15;;;5.10;99.90;;;;;;5063175;28;20575;-63
2022/03/08 07:28:53;;;;;;;17.27;11.90;;;5.10;99.90;;;;;;5060627;28;20300;-63
2022/03/08 07:31:24;;;;;;;12.30;10.95;;;5.10;99.90;;;;;;5063588;28;20186;-63
2022/03/08 07:33:55;;;;;;;14.68;10.85;;;5.10;99.90;;;;;;5063386;28;20209;-63
2022/03/08 07:36:27;;;;;;;13.60;10.93;;;5.10;99.90;;;;;;5072129;28;20230;-63
2022/03/08 07:38:58;;;;;;;15.88;11.45;;;5.10;99.90;;;;;;5068945;28;20304;-63
2022/03/08 07:41:30;;;;;;;13.95;11.98;;;5.00;99.90;;;;;;5066722;28;20198;-63
2022/03/08 07:44:03;;;;;;;19.58;12.35;;;5.00;99.90;;;;;;5064975;28;20208;-63
2022/03/08 07:46:34;;;;;;;13.75;9.75;;;4.90;99.90;;;;;;5076732;28;20285;-63
2022/03/08 07:49:05;;;;;;;13.10;11.07;;;4.90;99.90;;;;;;5071777;28;20206;-63
2022/03/08 07:51:51;;;;;;;13.80;10.82;;;5.00;99.90;;;;;;5065553;28;20220;-64
2022/03/08 07:54:22;;;;;;;13.88;11.32;;;5.00;99.90;;;;;;5064915;28;20612;-64
2022/03/08 07:56:55;;;;;;;13.43;11.27;;;4.90;99.90;;;;;;5065950;28;20233;-63
2022/03/08 07:59:26;;;;;;;13.73;10.88;;;4.90;99.90;;;;;;5065478;28;20257;-63
2022/03/08 08:01:57;;;;;;;12.32;9.95;;;5.00;99.90;;;;;;5066596;28;20266;-63
2022/03/08 08:04:29;;;;;;;12.68;10.77;;;5.00;99.90;;;;;;5065419;28;20224;-63
2022/03/08 08:07:00;;;;;;;14.43;11.40;;;4.90;99.90;;;;;;5072199;28;20208;-63
2022/03/08 08:09:31;;;;;;;15.98;10.98;;;4.80;99.90;;;;;;5065414;28;20203;-63
2022/03/08 08:12:04;;;;;;;13.15;11.60;;;4.80;99.90;;;;;;5067146;28;20222;-63
2022/03/08 08:14:36;;;;;;;16.70;11.65;;;4.80;99.90;;;;;;5077734;28;20197;-63
2022/03/08 08:17:07;;;;;;;12.65;10.65;;;4.70;99.90;;;;;;5066771;28;20235;-64
2022/03/08 08:19:38;;;;;;;12.95;10.48;;;4.60;99.90;;;;;;5066245;28;20194;-63
2022/03/08 08:22:09;;;;;;;14.57;11.70;;;4.60;99.90;;;;;;5065459;28;20198;-62
2022/03/08 08:24:40;;;;;;;12.57;10.43;;;4.60;99.90;;;;;;5063043;28;20700;-63
2022/03/08 08:27:12;;;;;;;17.50;11.02;;;4.50;99.90;;;;;;5077503;28;20300;-63
2022/03/08 08:29:43;;;;;;;12.15;10.00;;;4.50;99.90;;;;;;5064611;28;20202;-64
2022/03/08 08:32:14;;;;;;;13.85;10.25;;;4.50;99.90;;;;;;5065433;28;20286;-63
2022/03/08 08:34:46;;;;;;;14.50;10.50;;;4.50;99.90;;;;;;5067140;28;20237;-63
2022/03/08 08:37:19;;;;;;;12.45;9.55;;;4.60;99.90;;;;;;5064464;28;20233;-63
2022/03/08 08:39:50;;;;;;;16.45;10.07;;;4.60;99.90;;;;;;5066266;28;20198;-63
2022/03/08 08:42:22;;;;;;;15.45;10.55;;;4.60;99.90;;;;;;5072821;28;20201;-63
2022/03/08 08:44:53;;;;;;;12.73;10.52;;;4.50;99.90;;;;;;5066808;28;20610;-64
2022/03/08 08:47:24;;;;;;;12.43;10.13;;;4.50;99.90;;;;;;5076239;28;20636;-63
2022/03/08 08:49:55;;;;;;;14.35;10.30;;;4.50;99.90;;;;;;5064841;28;20202;-63
2022/03/08 08:52:27;;;;;;;16.33;11.00;;;4.40;99.90;;;;;;5064253;28;20220;-63
2022/03/08 08:54:58;;;;;;;14.50;10.90;;;4.40;99.90;;;;;;5066383;28;20198;-63
2022/03/08 08:57:30;;;;;;;15.27;11.40;;;4.40;99.90;;;;;;5065989;28;20240;-63
2022/03/08 09:00:02;;;;;;;14.88;10.50;;;4.40;99.90;;;;;;5069954;28;20853;-63
2022/03/08 09:02:32;;;;;;;15.88;11.73;;;4.40;99.90;;;;;;5071490;28;20697;-63
2022/03/08 09:05:04;;;;;;;15.10;11.65;;;4.30;99.90;;;;;;5062932;28;20222;-63
2022/03/08 09:07:35;;;;;;;13.05;9.75;;;4.30;99.90;;;;;;5064103;28;20220;-63
2022/03/08 09:10:07;;;;;;;17.40;10.60;;;4.30;99.90;;;;;;5074474;28;20217;-63
2022/03/08 09:12:40;;;;;;;13.32;11.60;;;4.40;99.90;;;;;;5067075;28;20226;-63
2022/03/08 09:15:11;;;;;;;18.15;12.18;;;4.40;99.90;;;;;;5063732;28;20233;-63
2022/03/08 09:17:41;;;;;;;15.82;11.07;;;4.40;99.90;;;;;;5075362;28;20285;-63
2022/03/08 09:20:13;;;;;;;18.58;10.63;;;4.30;99.90;;;;;;5063950;28;20206;-63
2022/03/08 09:22:50;;;;;;;11.85;10.07;;;4.20;99.90;;;;;;5065265;28;20197;-62
2022/03/08 09:25:22;;;;;;;12.27;10.23;;;4.20;99.90;;;;;;5067497;28;20325;-63
2022/03/08 09:27:55;;;;;;;17.95;11.43;;;4.30;99.90;;;;;;5068302;28;20686;-63
2022/03/08 09:30:26;;;;;;;12.35;10.75;;;4.20;99.90;;;;;;5065412;28;20641;-63
2022/03/08 09:32:58;;;;;;;14.63;11.30;;;4.20;99.90;;;;;;5066170;28;20187;-63
2022/03/08 09:35:29;;;;;;;16.40;12.68;;;4.20;99.90;;;;;;5063510;28;20209;-62
2022/03/08 09:38:01;;;;;;;17.33;12.05;;;4.20;99.90;;;;;;5052533;28;20303;-63
2022/03/08 09:40:32;;;;;;;13.82;11.18;;;4.30;99.90;;;;;;5063068;28;20542;-63
2022/03/08 09:43:08;;;;;;;17.98;12.75;;;4.30;99.90;;;;;;5072043;28;20307;-63
2022/03/08 09:45:39;;;;;;;17.92;12.60;;;4.40;99.90;;;;;;5078500;28;20194;-63
2022/03/08 09:48:10;;;;;;;16.02;12.75;;;4.50;99.90;;;;;;5068984;28;20280;-63
2022/03/08 09:50:41;;;;;;;18.25;11.30;;;4.50;99.90;;;;;;5056959;28;20208;-63
2022/03/08 09:53:13;;;;;;;13.00;10.77;;;4.50;99.90;;;;;;5063856;28;20202;-62
2022/03/08 09:55:44;;;;;;;15.27;10.93;;;4.50;99.90;;;;;;5064647;28;20712;-63
2022/03/08 09:58:19;;;;;;;16.65;11.98;;;4.50;99.90;;;;;;5063272;28;20226;-63
2022/03/08 10:00:51;;;;;;;14.88;11.25;;;4.60;99.90;;;;;;5069550;28;20257;-63
2022/03/08 10:03:33;;;;;;;15.65;11.50;;;4.70;99.90;;;;;;5073724;28;20264;-63
2022/03/08 10:06:05;;;;;;;15.48;12.43;;;4.70;99.90;;;;;;5064094;28;20269;-63
2022/03/08 10:08:36;;;;;;;18.52;11.95;;;4.80;99.90;;;;;;5063292;28;20604;-63
2022/03/08 10:11:11;;;;;;;19.67;13.88;;;4.90;99.90;;;;;;5062792;28;20206;-63
2022/03/08 10:13:53;;;;;;;17.25;12.82;;;4.90;99.90;;;;;;5065593;28;20209;-63
2022/03/08 10:16:27;;;;;;;14.88;11.35;;;5.00;99.90;;;;;;5052827;28;20328;-63
2022/03/08 10:19:02;;;;;;;15.85;12.15;;;5.00;99.90;;;;;;5062904;28;20215;-63
2022/03/08 10:21:35;;;;;;;16.08;12.70;;;5.10;99.90;;;;;;5062957;28;20197;-63
2022/03/08 10:24:10;;;;;;;14.38;11.57;;;5.10;99.90;;;;;;5062435;28;20221;-63
2022/03/08 10:26:47;;;;;;;17.05;11.68;;;5.20;99.90;;;;;;5050280;28;20260;-63
2022/03/08 10:29:26;;;;;;;15.40;12.77;;;5.30;99.90;;;;;;5068808;28;20212;-62
2022/03/08 10:32:07;;;;;;;16.83;14.43;;;5.40;99.90;;;;;;5067622;28;20209;-64
2022/03/08 10:34:40;;;;;;;18.52;14.05;;;5.30;99.90;;;;;;5063029;28;20217;-65
2022/03/08 10:37:14;;;;;;;21.00;12.85;;;5.30;99.90;;;;;;5062926;28;20213;-62
2022/03/08 10:39:53;;;;;;;19.85;13.55;;;5.40;99.90;;;;;;5076300;28;20215;-61
2022/03/08 10:42:25;;;;;;;17.63;15.15;;;5.40;99.90;;;;;;5072671;28;20205;-63
2022/03/08 10:45:03;;;;;;;20.70;13.50;;;5.40;99.90;;;;;;5068931;28;20202;-63
2022/03/08 10:47:41;;;;;;;17.40;14.52;;;5.50;99.90;;;;;;5066613;28;20229;-64
2022/03/08 10:50:13;;;;;;;19.08;13.85;;;5.40;99.90;;;;;;5062130;28;20205;-64
2022/03/08 10:52:48;;;;;;;18.92;13.10;;;5.60;99.90;;;;;;5061392;28;20190;-64
2022/03/08 10:55:20;;;;;;;18.63;15.35;;;5.60;99.90;;;;;;5062131;28;20284;-63
2022/03/08 10:57:54;;;;;;;16.10;13.90;;;5.70;99.90;;;;;;5070783;28;20256;-63
2022/03/08 11:00:28;;;;;;;18.55;14.80;;;5.70;99.90;;;;;;5066595;28;20213;-64
2022/03/08 11:03:00;;;;;;;17.85;14.23;;;5.80;99.90;;;;;;5074538;28;20206;-64
2022/03/08 11:05:33;;;;;;;20.88;14.18;;;5.80;99.90;;;;;;5070928;28;20233;-64
2022/03/08 11:08:04;;;;;;;20.08;16.10;;;5.80;99.90;;;;;;5071841;28;20273;-64
2022/03/08 11:10:36;;;;;;;21.25;15.70;;;5.80;99.90;;;;;;5058450;28;20201;-63
2022/03/08 11:13:08;;;;;;;19.27;15.55;;;5.80;99.90;;;;;;5065493;28;20201;-63
2022/03/08 11:15:43;;;;;;;18.98;14.68;;;6.00;99.90;;;;;;5060423;28;20244;-63
2022/03/08 11:18:16;;;;;;;18.48;16.05;;;6.00;99.90;;;;;;5064110;28;20235;-63
2022/03/08 11:20:49;;;;;;;23.38;15.90;;;6.10;99.90;;;;;;5074417;28;20287;-63
2022/03/08 11:23:20;;;;;;;21.00;16.73;;;6.00;99.90;;;;;;5065137;28;20270;-64
2022/03/08 11:25:52;;;;;;;17.83;15.07;;;6.00;99.90;;;;;;5051610;28;20288;-64
2022/03/08 11:28:23;;;;;;;19.95;16.25;;;6.00;99.90;;;;;;5072232;28;20208;-63
2022/03/08 11:30:58;;;;;;;20.05;15.70;;;6.10;99.90;;;;;;5065575;28;20205;-63
2022/03/08 11:33:42;;;;;;;19.60;16.10;;;6.20;99.90;;;;;;5071390;28;20273;-63
2022/03/08 11:36:22;;;;;;;22.35;15.82;;;6.20;99.90;;;;;;5067038;28;20201;-64
2022/03/08 11:39:21;;;;;;;19.70;15.25;;;6.20;99.90;;;;;;5071656;28;20240;-63
2022/03/08 11:41:54;;;;;;;20.30;16.67;;;6.10;99.90;;;;;;5078895;28;20195;-64
2022/03/08 11:44:28;;;;;;;18.08;15.25;;;6.10;99.90;;;;;;5066339;28;20653;-63
2022/03/08 11:47:18;;;;;;;18.10;15.35;;;6.20;99.90;;;;;;5066249;28;20189;-63
2022/03/08 11:49:55;;;;;;;17.95;16.05;;;6.20;99.90;;;;;;5066548;28;20846;-63
2022/03/08 11:52:30;;;;;;;20.95;16.27;;;6.20;99.90;;;;;;5069139;28;20248;-63
2022/03/08 11:55:03;;;;;;;17.65;15.38;;;6.10;99.90;;;;;;5065661;28;20220;-63
2022/03/08 11:58:05;;;;;;;16.25;14.52;;;6.20;99.90;;;;;;5078409;28;20236;-63
2022/03/08 12:00:42;;;;;;;17.00;15.15;;;6.20;99.90;;;;;;5055727;28;20237;-64
2022/03/08 12:03:18;;;;;;;17.48;14.50;;;6.10;99.90;;;;;;5044842;28;20234;-63
2022/03/08 12:06:07;;;;;;;17.10;15.23;;;6.10;99.90;;;;;;5028515;28;20193;-64
2022/03/08 12:08:47;;;;;;;15.50;13.80;;;6.20;99.90;;;;;;5043233;28;20213;-64
2022/03/08 12:11:36;;;;;;;20.65;15.05;;;6.10;99.90;;;;;;5046122;28;20278;-64
2022/03/08 12:14:25;;;;;;;18.10;15.35;;;6.20;99.90;;;;;;5039293;28;20741;-64
2022/03/08 12:17:11;;;;;;;15.95;14.25;;;6.20;99.90;;;;;;5042756;28;20372;-64
2022/03/08 12:19:50;;;;;;;19.70;14.68;;;6.20;99.90;;;;;;5055507;28;20236;-63
2022/03/08 12:22:23;;;;;;;20.08;15.10;;;6.20;99.90;;;;;;5041576;28;20217;-64
2022/03/08 12:24:57;;;;;;;16.60;14.45;;;6.30;99.90;;;;;;5046167;28;20232;-64
2022/03/08 12:27:47;;;;;;;16.58;13.88;;;6.40;99.90;;;;;;5040094;28;20306;-63
2022/03/08 12:30:19;;;;;;;17.20;14.40;;;6.30;99.90;;;;;;5036359;28;20191;-64
2022/03/08 12:32:58;;;;;;;19.95;13.90;;;6.40;99.90;;;;;;5042677;28;20217;-63
2022/03/08 12:35:31;;;;;;;15.07;13.43;;;6.40;99.90;;;;;;5063150;28;20201;-63
2022/03/08 12:38:03;;;;;;;17.02;14.48;;;6.40;99.90;;;;;;5055571;28;20222;-64
2022/03/08 12:40:36;;;;;;;16.80;13.73;;;6.40;99.90;;;;;;5068526;28;20203;-63
2022/03/08 12:43:10;;;;;;;19.10;14.10;;;6.40;99.90;;;;;;5063994;28;20202;-63
2022/03/08 12:45:47;;;;;;;16.70;13.60;;;6.40;99.90;;;;;;5064742;28;20208;-64
2022/03/08 12:48:21;;;;;;;14.90;12.95;;;6.40;99.90;;;;;;5066891;28;20190;-63
2022/03/08 12:50:56;;;;;;;15.73;13.25;;;6.30;99.90;;;;;;5064933;28;20213;-63
2022/03/08 12:53:29;;;;;;;15.48;12.63;;;6.30;99.90;;;;;;5069939;28;20211;-63
2022/03/08 12:56:03;;;;;;;13.95;12.52;;;6.30;99.90;;;;;;5064188;28;20194;-63
2022/03/08 12:58:37;;;;;;;12.93;11.57;;;6.20;99.90;;;;;;5068716;28;20687;-63
2022/03/08 13:01:09;;;;;;;16.88;11.40;;;6.30;99.90;;;;;;5068162;28;20220;-63
2022/03/08 13:03:46;;;;;;;13.85;12.07;;;6.30;99.90;;;;;;5063193;28;20235;-64
2022/03/08 13:06:19;;;;;;;17.08;12.23;;;6.50;99.90;;;;;;5064527;28;20185;-63
2022/03/08 13:08:50;;;;;;;12.48;11.00;;;6.50;99.90;;;;;;5061929;28;20206;-63
2022/03/08 13:11:21;;;;;;;19.20;11.68;;;6.50;99.90;;;;;;5064813;28;20205;-63
2022/03/08 13:13:53;;;;;;;12.68;10.65;;;6.50;99.90;;;;;;5074483;28;20197;-63